sensor_id;sensor_type;location;lat;lon;timestamp;P1;durP1;ratioP1;P2;durP2;ratioP2
11263;SDS011;5689;48.798;9.070;2023-05-29T00:01:46;0.30;;;0.30;;
11263;SDS011;5689;48.798;9.070;2023-05-29T00:04:14;0.20;;;0.20;;
11263;SDS011;5689;48.798;9.070;2023-05-29T00:06:42;0.25;;;0.25;;
11263;SDS011;5689;48.798;9.070;2023-05-29T00:09:10;0.20;;;0.20;;
11263;SDS011;5689;48.798;9.070;2023-05-29T00:11:38;0.20;;;0.20;;
11263;SDS011;5689;48.798;9.070;2023-05-29T00:14:06;0.20;;;0.20;;
11263;SDS011;5689;48.798;9.070;2023-05-29T00:16:38;0.20;;;0.20;;
11263;SDS011;5689;48.798;9.070;2023-05-29T00:19:08;0.20;;;0.20;;
11263;SDS011;5689;48.798;9.070;2023-05-29T00:21:36;0.20;;;0.20;;
11263;SDS011;5689;48.798;9.070;2023-05-29T00:24:04;0.10;;;0.10;;
11263;SDS011;5689;48.798;9.070;2023-05-29T00:26:32;0.20;;;0.20;;
11263;SDS011;5689;48.798;9.070;2023-05-29T00:29:01;0.20;;;0.20;;
11263;SDS011;5689;48.798;9.070;2023-05-29T00:31:28;0.10;;;0.10;;
11263;SDS011;5689;48.798;9.070;2023-05-29T00:33:58;0.20;;;0.20;;
11263;SDS011;5689;48.798;9.070;2023-05-29T00:36:27;0.10;;;0.10;;
11263;SDS011;5689;48.798;9.070;2023-05-29T00:38:55;0.10;;;0.10;;
11263;SDS011;5689;48.798;9.070;2023-05-29T00:41:23;0.22;;;0.22;;
11263;SDS011;5689;48.798;9.070;2023-05-29T00:43:52;0.20;;;0.20;;
11263;SDS011;5689;48.798;9.070;2023-05-29T00:46:20;0.20;;;0.20;;
11263;SDS011;5689;48.798;9.070;2023-05-29T00:48:48;0.17;;;0.17;;
11263;SDS011;5689;48.798;9.070;2023-05-29T00:51:17;0.20;;;0.20;;
11263;SDS011;5689;48.798;9.070;2023-05-29T00:53:46;0.20;;;0.20;;
11263;SDS011;5689;48.798;9.070;2023-05-29T00:56:17;0.20;;;0.20;;
11263;SDS011;5689;48.798;9.070;2023-05-29T00:58:47;0.20;;;0.20;;
11263;SDS011;5689;48.798;9.070;2023-05-29T01:01:17;0.15;;;0.15;;
11263;SDS011;5689;48.798;9.070;2023-05-29T01:03:45;0.10;;;0.10;;
11263;SDS011;5689;48.798;9.070;2023-05-29T01:06:15;0.17;;;0.17;;
11263;SDS011;5689;48.798;9.070;2023-05-29T01:08:43;0.20;;;0.20;;
11263;SDS011;5689;48.798;9.070;2023-05-29T01:11:15;0.20;;;0.20;;
11263;SDS011;5689;48.798;9.070;2023-05-29T01:13:53;0.27;;;0.27;;
11263;SDS011;5689;48.798;9.070;2023-05-29T01:16:25;0.20;;;0.20;;
11263;SDS011;5689;48.798;9.070;2023-05-29T01:19:05;0.20;;;0.20;;
11263;SDS011;5689;48.798;9.070;2023-05-29T01:21:42;0.20;;;0.20;;
11263;SDS011;5689;48.798;9.070;2023-05-29T01:24:26;0.10;;;0.10;;
11263;SDS011;5689;48.798;9.070;2023-05-29T01:27:06;0.20;;;0.20;;
11263;SDS011;5689;48.798;9.070;2023-05-29T01:29:37;0.20;;;0.20;;
11263;SDS011;5689;48.798;9.070;2023-05-29T01:32:07;0.20;;;0.20;;
11263;SDS011;5689;48.798;9.070;2023-05-29T01:34:36;0.20;;;0.20;;
11263;SDS011;5689;48.798;9.070;2023-05-29T01:37:05;0.20;;;0.20;;
11263;SDS011;5689;48.798;9.070;2023-05-29T01:39:33;0.20;;;0.20;;
11263;SDS011;5689;48.798;9.070;2023-05-29T01:42:01;0.10;;;0.10;;
11263;SDS011;5689;48.798;9.070;2023-05-29T01:44:35;0.20;;;0.20;;
11263;SDS011;5689;48.798;9.070;2023-05-29T01:47:04;0.30;;;0.30;;
11263;SDS011;5689;48.798;9.070;2023-05-29T01:49:33;0.25;;;0.25;;
11263;SDS011;5689;48.798;9.070;2023-05-29T01:52:04;0.20;;;0.20;;
11263;SDS011;5689;48.798;9.070;2023-05-29T01:54:32;0.20;;;0.20;;
11263;SDS011;5689;48.798;9.070;2023-05-29T01:57:00;0.15;;;0.15;;
11263;SDS011;5689;48.798;9.070;2023-05-29T01:59:32;0.20;;;0.20;;
11263;SDS011;5689;48.798;9.070;2023-05-29T02:02:05;0.20;;;0.20;;
11263;SDS011;5689;48.798;9.070;2023-05-29T02:04:33;0.20;;;0.20;;
11263;SDS011;5689;48.798;9.070;2023-05-29T02:07:01;0.20;;;0.20;;
11263;SDS011;5689;48.798;9.070;2023-05-29T02:09:29;0.20;;;0.20;;
11263;SDS011;5689;48.798;9.070;2023-05-29T02:11:58;0.17;;;0.17;;
11263;SDS011;5689;48.798;9.070;2023-05-29T02:14:27;0.20;;;0.20;;
11263;SDS011;5689;48.798;9.070;2023-05-29T02:16:56;0.20;;;0.20;;
11263;SDS011;5689;48.798;9.070;2023-05-29T02:19:24;0.20;;;0.20;;
11263;SDS011;5689;48.798;9.070;2023-05-29T02:21:53;0.20;;;0.20;;
11263;SDS011;5689;48.798;9.070;2023-05-29T02:24:21;0.20;;;0.20;;
11263;SDS011;5689;48.798;9.070;2023-05-29T02:26:49;0.20;;;0.20;;
11263;SDS011;5689;48.798;9.070;2023-05-29T02:29:18;0.20;;;0.20;;
11263;SDS011;5689;48.798;9.070;2023-05-29T02:31:46;0.20;;;0.20;;
11263;SDS011;5689;48.798;9.070;2023-05-29T02:34:15;0.20;;;0.20;;
11263;SDS011;5689;48.798;9.070;2023-05-29T02:36:43;0.20;;;0.20;;
11263;SDS011;5689;48.798;9.070;2023-05-29T02:39:11;0.20;;;0.20;;
11263;SDS011;5689;48.798;9.070;2023-05-29T02:41:39;0.30;;;0.30;;
11263;SDS011;5689;48.798;9.070;2023-05-29T02:44:07;0.20;;;0.20;;
11263;SDS011;5689;48.798;9.070;2023-05-29T02:46:35;0.23;;;0.23;;
11263;SDS011;5689;48.798;9.070;2023-05-29T02:49:03;0.20;;;0.20;;
11263;SDS011;5689;48.798;9.070;2023-05-29T02:51:33;0.20;;;0.20;;
11263;SDS011;5689;48.798;9.070;2023-05-29T02:54:01;0.30;;;0.30;;
11263;SDS011;5689;48.798;9.070;2023-05-29T02:56:29;0.20;;;0.20;;
11263;SDS011;5689;48.798;9.070;2023-05-29T02:58:57;0.30;;;0.30;;
11263;SDS011;5689;48.798;9.070;2023-05-29T03:01:25;0.20;;;0.20;;
11263;SDS011;5689;48.798;9.070;2023-05-29T03:03:54;0.20;;;0.20;;
11263;SDS011;5689;48.798;9.070;2023-05-29T03:06:22;0.20;;;0.20;;
11263;SDS011;5689;48.798;9.070;2023-05-29T03:08:52;0.20;;;0.20;;
11263;SDS011;5689;48.798;9.070;2023-05-29T03:11:20;0.30;;;0.30;;
11263;SDS011;5689;48.798;9.070;2023-05-29T03:13:49;0.20;;;0.20;;
11263;SDS011;5689;48.798;9.070;2023-05-29T03:16:17;0.20;;;0.20;;
11263;SDS011;5689;48.798;9.070;2023-05-29T03:18:46;0.30;;;0.30;;
11263;SDS011;5689;48.798;9.070;2023-05-29T03:21:18;0.20;;;0.20;;
11263;SDS011;5689;48.798;9.070;2023-05-29T03:23:46;0.20;;;0.20;;
11263;SDS011;5689;48.798;9.070;2023-05-29T03:26:15;0.20;;;0.20;;
11263;SDS011;5689;48.798;9.070;2023-05-29T03:28:44;0.20;;;0.20;;
11263;SDS011;5689;48.798;9.070;2023-05-29T03:31:12;0.30;;;0.30;;
11263;SDS011;5689;48.798;9.070;2023-05-29T03:33:40;0.30;;;0.30;;
11263;SDS011;5689;48.798;9.070;2023-05-29T03:36:34;0.20;;;0.20;;
11263;SDS011;5689;48.798;9.070;2023-05-29T03:39:02;0.20;;;0.20;;
11263;SDS011;5689;48.798;9.070;2023-05-29T03:41:32;0.30;;;0.30;;
11263;SDS011;5689;48.798;9.070;2023-05-29T03:44:01;0.20;;;0.20;;
11263;SDS011;5689;48.798;9.070;2023-05-29T03:46:29;0.30;;;0.30;;
11263;SDS011;5689;48.798;9.070;2023-05-29T03:48:59;0.30;;;0.30;;
11263;SDS011;5689;48.798;9.070;2023-05-29T03:51:29;0.30;;;0.30;;
11263;SDS011;5689;48.798;9.070;2023-05-29T03:53:58;0.30;;;0.30;;
11263;SDS011;5689;48.798;9.070;2023-05-29T03:56:26;0.27;;;0.27;;
11263;SDS011;5689;48.798;9.070;2023-05-29T03:58:55;0.27;;;0.27;;
11263;SDS011;5689;48.798;9.070;2023-05-29T04:01:23;0.30;;;0.30;;
11263;SDS011;5689;48.798;9.070;2023-05-29T04:03:53;0.30;;;0.30;;
11263;SDS011;5689;48.798;9.070;2023-05-29T04:06:22;0.20;;;0.20;;
11263;SDS011;5689;48.798;9.070;2023-05-29T04:08:50;0.20;;;0.20;;
11263;SDS011;5689;48.798;9.070;2023-05-29T04:11:18;0.20;;;0.20;;
11263;SDS011;5689;48.798;9.070;2023-05-29T04:13:48;0.20;;;0.20;;
11263;SDS011;5689;48.798;9.070;2023-05-29T04:16:17;0.20;;;0.20;;
11263;SDS011;5689;48.798;9.070;2023-05-29T04:18:47;0.30;;;0.30;;
11263;SDS011;5689;48.798;9.070;2023-05-29T04:21:15;0.20;;;0.20;;
11263;SDS011;5689;48.798;9.070;2023-05-29T04:23:43;0.30;;;0.30;;
11263;SDS011;5689;48.798;9.070;2023-05-29T04:26:11;0.20;;;0.20;;
11263;SDS011;5689;48.798;9.070;2023-05-29T04:28:39;0.20;;;0.20;;
11263;SDS011;5689;48.798;9.070;2023-05-29T04:31:08;0.20;;;0.20;;
11263;SDS011;5689;48.798;9.070;2023-05-29T04:33:42;0.30;;;0.30;;
11263;SDS011;5689;48.798;9.070;2023-05-29T04:36:11;0.20;;;0.20;;
11263;SDS011;5689;48.798;9.070;2023-05-29T04:38:44;0.10;;;0.10;;
11263;SDS011;5689;48.798;9.070;2023-05-29T04:41:13;0.20;;;0.20;;
11263;SDS011;5689;48.798;9.070;2023-05-29T04:43:42;0.20;;;0.20;;
11263;SDS011;5689;48.798;9.070;2023-05-29T04:46:10;0.20;;;0.20;;
11263;SDS011;5689;48.798;9.070;2023-05-29T04:48:39;0.20;;;0.20;;
11263;SDS011;5689;48.798;9.070;2023-05-29T04:51:09;0.20;;;0.20;;
11263;SDS011;5689;48.798;9.070;2023-05-29T04:53:38;0.20;;;0.20;;
11263;SDS011;5689;48.798;9.070;2023-05-29T04:56:08;0.20;;;0.20;;
11263;SDS011;5689;48.798;9.070;2023-05-29T04:58:36;0.20;;;0.20;;
11263;SDS011;5689;48.798;9.070;2023-05-29T05:01:05;0.20;;;0.20;;
11263;SDS011;5689;48.798;9.070;2023-05-29T05:03:36;0.20;;;0.20;;
11263;SDS011;5689;48.798;9.070;2023-05-29T05:06:04;0.20;;;0.20;;
11263;SDS011;5689;48.798;9.070;2023-05-29T05:08:35;0.10;;;0.10;;
11263;SDS011;5689;48.798;9.070;2023-05-29T05:11:04;0.30;;;0.30;;
11263;SDS011;5689;48.798;9.070;2023-05-29T05:13:32;0.30;;;0.30;;
11263;SDS011;5689;48.798;9.070;2023-05-29T05:16:00;0.10;;;0.10;;
11263;SDS011;5689;48.798;9.070;2023-05-29T05:18:29;0.20;;;0.20;;
11263;SDS011;5689;48.798;9.070;2023-05-29T05:21:02;0.15;;;0.15;;
11263;SDS011;5689;48.798;9.070;2023-05-29T05:23:33;0.20;;;0.20;;
11263;SDS011;5689;48.798;9.070;2023-05-29T05:26:12;0.20;;;0.20;;
11263;SDS011;5689;48.798;9.070;2023-05-29T05:28:40;0.20;;;0.20;;
11263;SDS011;5689;48.798;9.070;2023-05-29T05:31:10;0.20;;;0.20;;
11263;SDS011;5689;48.798;9.070;2023-05-29T05:33:38;0.20;;;0.20;;
11263;SDS011;5689;48.798;9.070;2023-05-29T05:36:06;0.20;;;0.20;;
11263;SDS011;5689;48.798;9.070;2023-05-29T05:38:36;0.10;;;0.10;;
11263;SDS011;5689;48.798;9.070;2023-05-29T05:41:04;0.20;;;0.20;;
11263;SDS011;5689;48.798;9.070;2023-05-29T05:43:34;0.10;;;0.10;;
11263;SDS011;5689;48.798;9.070;2023-05-29T05:46:12;0.10;;;0.10;;
11263;SDS011;5689;48.798;9.070;2023-05-29T05:48:41;0.10;;;0.10;;
11263;SDS011;5689;48.798;9.070;2023-05-29T05:51:09;0.20;;;0.20;;
11263;SDS011;5689;48.798;9.070;2023-05-29T05:53:38;0.20;;;0.20;;
11263;SDS011;5689;48.798;9.070;2023-05-29T05:56:07;0.10;;;0.10;;
11263;SDS011;5689;48.798;9.070;2023-05-29T05:58:36;0.10;;;0.10;;
11263;SDS011;5689;48.798;9.070;2023-05-29T06:01:05;0.20;;;0.20;;
11263;SDS011;5689;48.798;9.070;2023-05-29T06:03:34;0.10;;;0.10;;
11263;SDS011;5689;48.798;9.070;2023-05-29T06:06:06;0.10;;;0.10;;
11263;SDS011;5689;48.798;9.070;2023-05-29T06:08:36;0.10;;;0.10;;
11263;SDS011;5689;48.798;9.070;2023-05-29T06:11:07;0.15;;;0.15;;
11263;SDS011;5689;48.798;9.070;2023-05-29T06:13:38;0.10;;;0.10;;
11263;SDS011;5689;48.798;9.070;2023-05-29T06:16:11;0.10;;;0.10;;
11263;SDS011;5689;48.798;9.070;2023-05-29T06:18:40;0.10;;;0.10;;
11263;SDS011;5689;48.798;9.070;2023-05-29T06:21:08;0.10;;;0.10;;
11263;SDS011;5689;48.798;9.070;2023-05-29T06:23:42;0.10;;;0.10;;
11263;SDS011;5689;48.798;9.070;2023-05-29T06:26:10;0.10;;;0.10;;
11263;SDS011;5689;48.798;9.070;2023-05-29T06:28:40;0.10;;;0.10;;
11263;SDS011;5689;48.798;9.070;2023-05-29T06:31:09;0.10;;;0.10;;
11263;SDS011;5689;48.798;9.070;2023-05-29T06:33:37;0.10;;;0.10;;
11263;SDS011;5689;48.798;9.070;2023-05-29T06:36:05;0.10;;;0.10;;
11263;SDS011;5689;48.798;9.070;2023-05-29T06:38:34;0.00;;;0.00;;
11263;SDS011;5689;48.798;9.070;2023-05-29T06:41:02;0.10;;;0.10;;
11263;SDS011;5689;48.798;9.070;2023-05-29T06:43:32;0.10;;;0.10;;
11263;SDS011;5689;48.798;9.070;2023-05-29T06:46:03;0.00;;;0.00;;
11263;SDS011;5689;48.798;9.070;2023-05-29T06:48:32;0.00;;;0.00;;
11263;SDS011;5689;48.798;9.070;2023-05-29T06:51:00;0.05;;;0.05;;
11263;SDS011;5689;48.798;9.070;2023-05-29T06:53:40;0.10;;;0.10;;
11263;SDS011;5689;48.798;9.070;2023-05-29T06:56:11;0.00;;;0.00;;
11263;SDS011;5689;48.798;9.070;2023-05-29T06:58:39;0.00;;;0.00;;
11263;SDS011;5689;48.798;9.070;2023-05-29T07:01:09;0.10;;;0.10;;
11263;SDS011;5689;48.798;9.070;2023-05-29T07:03:43;0.10;;;0.10;;
11263;SDS011;5689;48.798;9.070;2023-05-29T07:06:13;0.10;;;0.10;;
11263;SDS011;5689;48.798;9.070;2023-05-29T07:08:41;0.10;;;0.10;;
11263;SDS011;5689;48.798;9.070;2023-05-29T07:11:10;0.10;;;0.10;;
11263;SDS011;5689;48.798;9.070;2023-05-29T07:13:39;0.10;;;0.10;;
11263;SDS011;5689;48.798;9.070;2023-05-29T07:16:08;0.20;;;0.20;;
11263;SDS011;5689;48.798;9.070;2023-05-29T07:18:44;0.10;;;0.10;;
11263;SDS011;5689;48.798;9.070;2023-05-29T07:21:12;0.10;;;0.10;;
11263;SDS011;5689;48.798;9.070;2023-05-29T07:23:40;0.20;;;0.20;;
11263;SDS011;5689;48.798;9.070;2023-05-29T07:26:08;0.10;;;0.10;;
11263;SDS011;5689;48.798;9.070;2023-05-29T07:28:38;0.10;;;0.10;;
11263;SDS011;5689;48.798;9.070;2023-05-29T07:31:06;0.10;;;0.10;;
11263;SDS011;5689;48.798;9.070;2023-05-29T07:33:35;0.10;;;0.10;;
11263;SDS011;5689;48.798;9.070;2023-05-29T07:36:03;0.10;;;0.10;;
11263;SDS011;5689;48.798;9.070;2023-05-29T07:38:31;0.10;;;0.10;;
11263;SDS011;5689;48.798;9.070;2023-05-29T07:41:00;0.10;;;0.10;;
11263;SDS011;5689;48.798;9.070;2023-05-29T07:43:30;0.10;;;0.10;;
11263;SDS011;5689;48.798;9.070;2023-05-29T07:46:02;0.10;;;0.10;;
11263;SDS011;5689;48.798;9.070;2023-05-29T07:48:30;0.00;;;0.00;;
11263;SDS011;5689;48.798;9.070;2023-05-29T07:51:00;0.10;;;0.10;;
11263;SDS011;5689;48.798;9.070;2023-05-29T07:53:33;0.10;;;0.10;;
11263;SDS011;5689;48.798;9.070;2023-05-29T07:56:02;0.10;;;0.10;;
11263;SDS011;5689;48.798;9.070;2023-05-29T07:58:31;0.10;;;0.10;;
11263;SDS011;5689;48.798;9.070;2023-05-29T08:00:59;0.10;;;0.10;;
11263;SDS011;5689;48.798;9.070;2023-05-29T08:03:28;0.10;;;0.10;;
11263;SDS011;5689;48.798;9.070;2023-05-29T08:06:20;0.10;;;0.10;;
11263;SDS011;5689;48.798;9.070;2023-05-29T08:08:48;0.05;;;0.05;;
11263;SDS011;5689;48.798;9.070;2023-05-29T08:11:19;0.00;;;0.00;;
11263;SDS011;5689;48.798;9.070;2023-05-29T08:13:48;0.00;;;0.00;;
11263;SDS011;5689;48.798;9.070;2023-05-29T08:16:17;0.00;;;0.00;;
11263;SDS011;5689;48.798;9.070;2023-05-29T08:18:45;0.10;;;0.10;;
11263;SDS011;5689;48.798;9.070;2023-05-29T09:15:32;0.00;;;0.00;;
11263;SDS011;5689;48.798;9.070;2023-05-29T09:18:00;0.00;;;0.00;;
11263;SDS011;5689;48.798;9.070;2023-05-29T09:20:28;0.10;;;0.10;;
11263;SDS011;5689;48.798;9.070;2023-05-29T09:22:57;0.10;;;0.10;;
11263;SDS011;5689;48.798;9.070;2023-05-29T09:25:27;0.10;;;0.10;;
11263;SDS011;5689;48.798;9.070;2023-05-29T09:27:59;0.10;;;0.10;;
11263;SDS011;5689;48.798;9.070;2023-05-29T09:30:38;0.00;;;0.00;;
11263;SDS011;5689;48.798;9.070;2023-05-29T09:33:07;0.10;;;0.10;;
11263;SDS011;5689;48.798;9.070;2023-05-29T09:35:37;0.10;;;0.10;;
11263;SDS011;5689;48.798;9.070;2023-05-29T09:38:07;0.00;;;0.00;;
11263;SDS011;5689;48.798;9.070;2023-05-29T09:40:37;0.00;;;0.00;;
11263;SDS011;5689;48.798;9.070;2023-05-29T09:43:08;0.00;;;0.00;;
11263;SDS011;5689;48.798;9.070;2023-05-29T09:45:39;0.00;;;0.00;;
11263;SDS011;5689;48.798;9.070;2023-05-29T09:48:08;0.00;;;0.00;;
11263;SDS011;5689;48.798;9.070;2023-05-29T09:50:40;0.00;;;0.00;;
11263;SDS011;5689;48.798;9.070;2023-05-29T09:53:17;0.00;;;0.00;;
11263;SDS011;5689;48.798;9.070;2023-05-29T09:55:46;0.05;;;0.05;;
11263;SDS011;5689;48.798;9.070;2023-05-29T09:58:15;0.00;;;0.00;;
11263;SDS011;5689;48.798;9.070;2023-05-29T10:00:46;0.00;;;0.00;;
11263;SDS011;5689;48.798;9.070;2023-05-29T10:03:14;0.00;;;0.00;;
11263;SDS011;5689;48.798;9.070;2023-05-29T10:05:43;0.03;;;0.03;;
11263;SDS011;5689;48.798;9.070;2023-05-29T10:08:15;0.00;;;0.00;;
11263;SDS011;5689;48.798;9.070;2023-05-29T10:10:48;0.00;;;0.00;;
11263;SDS011;5689;48.798;9.070;2023-05-29T10:13:21;0.10;;;0.10;;
11263;SDS011;5689;48.798;9.070;2023-05-29T10:15:54;0.00;;;0.00;;
11263;SDS011;5689;48.798;9.070;2023-05-29T10:18:24;0.00;;;0.00;;
11263;SDS011;5689;48.798;9.070;2023-05-29T10:20:59;0.08;;;0.08;;
11263;SDS011;5689;48.798;9.070;2023-05-29T10:23:29;0.10;;;0.10;;
11263;SDS011;5689;48.798;9.070;2023-05-29T10:25:58;0.00;;;0.00;;
11263;SDS011;5689;48.798;9.070;2023-05-29T10:28:32;0.10;;;0.10;;
11263;SDS011;5689;48.798;9.070;2023-05-29T10:31:05;0.00;;;0.00;;
11263;SDS011;5689;48.798;9.070;2023-05-29T10:33:39;0.10;;;0.10;;
11263;SDS011;5689;48.798;9.070;2023-05-29T10:36:18;0.00;;;0.00;;
11263;SDS011;5689;48.798;9.070;2023-05-29T10:38:50;0.00;;;0.00;;
11263;SDS011;5689;48.798;9.070;2023-05-29T10:41:28;0.10;;;0.10;;
11263;SDS011;5689;48.798;9.070;2023-05-29T10:44:00;0.10;;;0.10;;
11263;SDS011;5689;48.798;9.070;2023-05-29T10:49:31;0.08;;;0.08;;
11263;SDS011;5689;48.798;9.070;2023-05-29T10:52:00;0.00;;;0.00;;
11263;SDS011;5689;48.798;9.070;2023-05-29T10:54:49;0.00;;;0.00;;
11263;SDS011;5689;48.798;9.070;2023-05-29T10:57:23;0.00;;;0.00;;
11263;SDS011;5689;48.798;9.070;2023-05-29T11:00:02;0.00;;;0.00;;
11263;SDS011;5689;48.798;9.070;2023-05-29T11:02:39;0.00;;;0.00;;
11263;SDS011;5689;48.798;9.070;2023-05-29T11:05:18;0.00;;;0.00;;
11263;SDS011;5689;48.798;9.070;2023-05-29T11:07:50;0.00;;;0.00;;
11263;SDS011;5689;48.798;9.070;2023-05-29T11:13:24;0.00;;;0.00;;
11263;SDS011;5689;48.798;9.070;2023-05-29T11:16:12;0.00;;;0.00;;
11263;SDS011;5689;48.798;9.070;2023-05-29T11:18:43;0.00;;;0.00;;
11263;SDS011;5689;48.798;9.070;2023-05-29T11:21:15;0.10;;;0.10;;
11263;SDS011;5689;48.798;9.070;2023-05-29T11:23:50;0.00;;;0.00;;
11263;SDS011;5689;48.798;9.070;2023-05-29T11:26:19;0.00;;;0.00;;
11263;SDS011;5689;48.798;9.070;2023-05-29T11:28:49;0.00;;;0.00;;
11263;SDS011;5689;48.798;9.070;2023-05-29T11:31:17;0.00;;;0.00;;
11263;SDS011;5689;48.798;9.070;2023-05-29T11:33:50;0.00;;;0.00;;
11263;SDS011;5689;48.798;9.070;2023-05-29T11:36:21;0.00;;;0.00;;
11263;SDS011;5689;48.798;9.070;2023-05-29T11:38:50;0.00;;;0.00;;
11263;SDS011;5689;48.798;9.070;2023-05-29T11:41:18;0.00;;;0.00;;
11263;SDS011;5689;48.798;9.070;2023-05-29T11:43:55;0.05;;;0.05;;
11263;SDS011;5689;48.798;9.070;2023-05-29T11:46:24;0.00;;;0.00;;
11263;SDS011;5689;48.798;9.070;2023-05-29T11:48:55;0.00;;;0.00;;
11263;SDS011;5689;48.798;9.070;2023-05-29T11:51:24;0.00;;;0.00;;
11263;SDS011;5689;48.798;9.070;2023-05-29T11:53:52;0.00;;;0.00;;
11263;SDS011;5689;48.798;9.070;2023-05-29T11:56:24;0.00;;;0.00;;
11263;SDS011;5689;48.798;9.070;2023-05-29T11:58:52;0.10;;;0.10;;
11263;SDS011;5689;48.798;9.070;2023-05-29T12:01:23;0.00;;;0.00;;
11263;SDS011;5689;48.798;9.070;2023-05-29T12:03:52;0.00;;;0.00;;
11263;SDS011;5689;48.798;9.070;2023-05-29T12:06:31;0.00;;;0.00;;
11263;SDS011;5689;48.798;9.070;2023-05-29T12:09:00;0.00;;;0.00;;
11263;SDS011;5689;48.798;9.070;2023-05-29T12:11:30;0.00;;;0.00;;
11263;SDS011;5689;48.798;9.070;2023-05-29T12:13:58;0.00;;;0.00;;
11263;SDS011;5689;48.798;9.070;2023-05-29T12:16:27;0.10;;;0.00;;
11263;SDS011;5689;48.798;9.070;2023-05-29T12:18:57;0.00;;;0.00;;
11263;SDS011;5689;48.798;9.070;2023-05-29T12:21:26;0.00;;;0.00;;
11263;SDS011;5689;48.798;9.070;2023-05-29T12:23:56;0.10;;;0.10;;
11263;SDS011;5689;48.798;9.070;2023-05-29T12:26:29;0.00;;;0.00;;
11263;SDS011;5689;48.798;9.070;2023-05-29T12:29:01;0.00;;;0.00;;
11263;SDS011;5689;48.798;9.070;2023-05-29T12:31:30;0.00;;;0.00;;
11263;SDS011;5689;48.798;9.070;2023-05-29T12:34:00;0.00;;;0.00;;
11263;SDS011;5689;48.798;9.070;2023-05-29T12:36:29;0.00;;;0.00;;
11263;SDS011;5689;48.798;9.070;2023-05-29T12:39:04;0.00;;;0.00;;
11263;SDS011;5689;48.798;9.070;2023-05-29T12:41:34;0.00;;;0.00;;
11263;SDS011;5689;48.798;9.070;2023-05-29T12:44:04;0.10;;;0.10;;
11263;SDS011;5689;48.798;9.070;2023-05-29T12:46:35;0.00;;;0.00;;
11263;SDS011;5689;48.798;9.070;2023-05-29T12:49:11;0.00;;;0.00;;
11263;SDS011;5689;48.798;9.070;2023-05-29T12:51:41;0.00;;;0.00;;
11263;SDS011;5689;48.798;9.070;2023-05-29T12:54:11;0.00;;;0.00;;
11263;SDS011;5689;48.798;9.070;2023-05-29T12:56:40;0.00;;;0.00;;
11263;SDS011;5689;48.798;9.070;2023-05-29T12:59:09;0.08;;;0.08;;
11263;SDS011;5689;48.798;9.070;2023-05-29T13:01:37;0.00;;;0.00;;
11263;SDS011;5689;48.798;9.070;2023-05-29T13:04:06;0.00;;;0.00;;
11263;SDS011;5689;48.798;9.070;2023-05-29T13:06:35;0.00;;;0.00;;
11263;SDS011;5689;48.798;9.070;2023-05-29T13:09:05;0.00;;;0.00;;
11263;SDS011;5689;48.798;9.070;2023-05-29T13:11:36;0.00;;;0.00;;
11263;SDS011;5689;48.798;9.070;2023-05-29T13:14:04;0.00;;;0.00;;
11263;SDS011;5689;48.798;9.070;2023-05-29T13:16:32;0.00;;;0.00;;
11263;SDS011;5689;48.798;9.070;2023-05-29T13:19:01;0.00;;;0.00;;
11263;SDS011;5689;48.798;9.070;2023-05-29T13:21:29;0.00;;;0.00;;
11263;SDS011;5689;48.798;9.070;2023-05-29T13:23:58;0.00;;;0.00;;
11263;SDS011;5689;48.798;9.070;2023-05-29T13:26:27;0.00;;;0.00;;
11263;SDS011;5689;48.798;9.070;2023-05-29T13:28:56;0.00;;;0.00;;
11263;SDS011;5689;48.798;9.070;2023-05-29T13:31:24;0.00;;;0.00;;
11263;SDS011;5689;48.798;9.070;2023-05-29T13:33:52;0.00;;;0.00;;
11263;SDS011;5689;48.798;9.070;2023-05-29T13:36:21;0.00;;;0.00;;
11263;SDS011;5689;48.798;9.070;2023-05-29T13:38:49;0.00;;;0.00;;
11263;SDS011;5689;48.798;9.070;2023-05-29T13:41:17;0.00;;;0.00;;
11263;SDS011;5689;48.798;9.070;2023-05-29T13:43:45;0.00;;;0.00;;
11263;SDS011;5689;48.798;9.070;2023-05-29T13:46:15;0.00;;;0.00;;
11263;SDS011;5689;48.798;9.070;2023-05-29T13:48:44;0.00;;;0.00;;
11263;SDS011;5689;48.798;9.070;2023-05-29T13:51:12;0.00;;;0.00;;
11263;SDS011;5689;48.798;9.070;2023-05-29T13:53:40;0.00;;;0.00;;
11263;SDS011;5689;48.798;9.070;2023-05-29T13:56:08;0.00;;;0.00;;
11263;SDS011;5689;48.798;9.070;2023-05-29T13:58:36;0.00;;;0.00;;
11263;SDS011;5689;48.798;9.070;2023-05-29T14:01:04;0.00;;;0.00;;
11263;SDS011;5689;48.798;9.070;2023-05-29T14:03:34;0.00;;;0.00;;
11263;SDS011;5689;48.798;9.070;2023-05-29T14:06:02;0.00;;;0.00;;
11263;SDS011;5689;48.798;9.070;2023-05-29T14:08:32;0.00;;;0.00;;
11263;SDS011;5689;48.798;9.070;2023-05-29T14:11:00;0.00;;;0.00;;
11263;SDS011;5689;48.798;9.070;2023-05-29T14:13:28;0.00;;;0.00;;
11263;SDS011;5689;48.798;9.070;2023-05-29T14:15:58;0.00;;;0.00;;
11263;SDS011;5689;48.798;9.070;2023-05-29T14:18:26;0.00;;;0.00;;
11263;SDS011;5689;48.798;9.070;2023-05-29T14:20:55;0.00;;;0.00;;
11263;SDS011;5689;48.798;9.070;2023-05-29T14:23:24;0.00;;;0.00;;
11263;SDS011;5689;48.798;9.070;2023-05-29T14:25:52;0.00;;;0.00;;
11263;SDS011;5689;48.798;9.070;2023-05-29T14:28:21;0.00;;;0.00;;
11263;SDS011;5689;48.798;9.070;2023-05-29T14:30:49;0.00;;;0.00;;
11263;SDS011;5689;48.798;9.070;2023-05-29T14:33:17;0.00;;;0.00;;
11263;SDS011;5689;48.798;9.070;2023-05-29T14:35:45;0.00;;;0.00;;
11263;SDS011;5689;48.798;9.070;2023-05-29T14:38:15;0.00;;;0.00;;
11263;SDS011;5689;48.798;9.070;2023-05-29T14:40:43;0.00;;;0.00;;
11263;SDS011;5689;48.798;9.070;2023-05-29T14:43:12;0.00;;;0.00;;
11263;SDS011;5689;48.798;9.070;2023-05-29T14:45:40;0.00;;;0.00;;
11263;SDS011;5689;48.798;9.070;2023-05-29T14:48:09;0.00;;;0.00;;
11263;SDS011;5689;48.798;9.070;2023-05-29T14:50:39;0.00;;;0.00;;
11263;SDS011;5689;48.798;9.070;2023-05-29T14:53:07;0.00;;;0.00;;
11263;SDS011;5689;48.798;9.070;2023-05-29T14:55:37;0.00;;;0.00;;
11263;SDS011;5689;48.798;9.070;2023-05-29T14:58:06;0.00;;;0.00;;
11263;SDS011;5689;48.798;9.070;2023-05-29T15:00:34;0.00;;;0.00;;
11263;SDS011;5689;48.798;9.070;2023-05-29T15:03:02;0.00;;;0.00;;
11263;SDS011;5689;48.798;9.070;2023-05-29T15:05:31;0.00;;;0.00;;
11263;SDS011;5689;48.798;9.070;2023-05-29T15:07:59;0.00;;;0.00;;
11263;SDS011;5689;48.798;9.070;2023-05-29T15:10:28;0.00;;;0.00;;
11263;SDS011;5689;48.798;9.070;2023-05-29T15:12:57;0.00;;;0.00;;
11263;SDS011;5689;48.798;9.070;2023-05-29T15:15:26;0.00;;;0.00;;
11263;SDS011;5689;48.798;9.070;2023-05-29T15:18:03;0.00;;;0.00;;
11263;SDS011;5689;48.798;9.070;2023-05-29T15:20:31;0.00;;;0.00;;
11263;SDS011;5689;48.798;9.070;2023-05-29T15:23:01;0.00;;;0.00;;
11263;SDS011;5689;48.798;9.070;2023-05-29T15:25:29;0.00;;;0.00;;
11263;SDS011;5689;48.798;9.070;2023-05-29T15:27:59;0.00;;;0.00;;
11263;SDS011;5689;48.798;9.070;2023-05-29T15:30:27;0.00;;;0.00;;
11263;SDS011;5689;48.798;9.070;2023-05-29T15:32:55;0.00;;;0.00;;
11263;SDS011;5689;48.798;9.070;2023-05-29T15:35:23;0.00;;;0.00;;
11263;SDS011;5689;48.798;9.070;2023-05-29T15:37:51;0.00;;;0.00;;
11263;SDS011;5689;48.798;9.070;2023-05-29T15:40:28;0.00;;;0.00;;
11263;SDS011;5689;48.798;9.070;2023-05-29T15:42:58;0.00;;;0.00;;
11263;SDS011;5689;48.798;9.070;2023-05-29T15:45:27;0.00;;;0.00;;
11263;SDS011;5689;48.798;9.070;2023-05-29T15:47:55;0.00;;;0.00;;
11263;SDS011;5689;48.798;9.070;2023-05-29T15:50:24;0.00;;;0.00;;
11263;SDS011;5689;48.798;9.070;2023-05-29T15:52:52;0.00;;;0.00;;
11263;SDS011;5689;48.798;9.070;2023-05-29T15:58:38;0.00;;;0.00;;
11263;SDS011;5689;48.798;9.070;2023-05-29T16:01:06;0.00;;;0.00;;
11263;SDS011;5689;48.798;9.070;2023-05-29T16:03:34;0.00;;;0.00;;
11263;SDS011;5689;48.798;9.070;2023-05-29T16:06:03;0.00;;;0.00;;
11263;SDS011;5689;48.798;9.070;2023-05-29T16:08:31;0.00;;;0.00;;
11263;SDS011;5689;48.798;9.070;2023-05-29T16:10:59;0.00;;;0.00;;
11263;SDS011;5689;48.798;9.070;2023-05-29T16:13:27;0.00;;;0.00;;
11263;SDS011;5689;48.798;9.070;2023-05-29T16:15:57;0.00;;;0.00;;
11263;SDS011;5689;48.798;9.070;2023-05-29T16:18:26;0.00;;;0.00;;
11263;SDS011;5689;48.798;9.070;2023-05-29T16:20:54;0.00;;;0.00;;